createdAt,value
2019-03-27T00:00:48.164Z,1024.03
2019-03-27T00:01:47.661Z,1024.01
2019-03-27T00:02:47.656Z,1024.06
2019-03-27T00:03:47.659Z,1024.04
2019-03-27T00:04:47.624Z,1024.07
2019-03-27T00:05:47.639Z,1024.05
2019-03-27T00:06:47.606Z,1024.06
2019-03-27T00:07:47.604Z,1024.05
2019-03-27T00:08:47.592Z,1024.01
2019-03-27T00:09:47.578Z,1024.07
2019-03-27T00:10:47.608Z,1024.04
2019-03-27T00:11:47.558Z,1024.08
2019-03-27T00:12:47.549Z,1024.10
2019-03-27T00:13:47.528Z,1024.02
2019-03-27T00:14:47.534Z,1024.03
2019-03-27T00:15:47.542Z,1024.04
2019-03-27T00:16:47.504Z,1024.08
2019-03-27T00:17:47.491Z,1024.02
2019-03-27T00:18:47.484Z,1024.11
2019-03-27T00:19:47.469Z,1024.07
2019-03-27T00:20:47.492Z,1024.10
2019-03-27T00:21:47.456Z,1024.15
2019-03-27T00:22:47.442Z,1024.12
2019-03-27T00:23:47.427Z,1024.13
2019-03-27T00:24:47.412Z,1024.16
2019-03-27T00:25:47.428Z,1024.17
2019-03-27T00:26:47.404Z,1024.18
2019-03-27T00:27:47.378Z,1024.19
2019-03-27T00:28:47.376Z,1024.21
2019-03-27T00:29:47.358Z,1024.21
2019-03-27T00:30:47.374Z,1024.25
2019-03-27T00:31:47.344Z,1024.22
2019-03-27T00:32:47.343Z,1024.19
2019-03-27T00:33:47.322Z,1024.22
2019-03-27T00:34:47.318Z,1024.24
2019-03-27T00:35:47.331Z,1024.20
2019-03-27T00:36:47.284Z,1024.22
2019-03-27T00:37:47.287Z,1024.22
2019-03-27T00:38:47.286Z,1024.17
2019-03-27T00:39:47.248Z,1024.19
2019-03-27T00:40:47.317Z,1024.19
2019-03-27T00:41:47.256Z,1024.21
2019-03-27T00:42:47.226Z,1024.19
2019-03-27T00:43:47.212Z,1024.12
2019-03-27T00:44:47.203Z,1024.21
2019-03-27T00:45:47.189Z,1024.15
2019-03-27T00:46:47.196Z,1024.13
2019-03-27T00:47:47.180Z,1024.09
2019-03-27T00:48:47.167Z,1024.15
2019-03-27T00:49:47.148Z,1024.10
2019-03-27T00:50:47.162Z,1024.16
2019-03-27T00:51:47.143Z,1024.18
2019-03-27T00:52:47.117Z,1024.20
2019-03-27T00:53:47.096Z,1024.16
2019-03-27T00:54:47.090Z,1024.18
2019-03-27T00:55:47.098Z,1024.16
2019-03-27T00:56:47.115Z,1024.12
2019-03-27T00:57:47.059Z,1024.18
2019-03-27T00:58:47.051Z,1024.12
2019-03-27T00:59:47.045Z,1024.14
2019-03-27T01:00:47.033Z,1024.17
2019-03-27T01:01:47.043Z,1024.18
2019-03-27T01:02:47.018Z,1024.12
2019-03-27T01:03:46.998Z,1024.13
2019-03-27T01:04:46.987Z,1024.15
2019-03-27T01:05:46.978Z,1024.10
2019-03-27T01:06:46.981Z,1024.10
2019-03-27T01:07:46.956Z,1024.15
2019-03-27T01:08:46.950Z,1024.13
2019-03-27T01:09:46.926Z,1024.14
2019-03-27T01:10:46.926Z,1024.05
2019-03-27T01:11:46.936Z,1024.08
2019-03-27T01:12:46.917Z,1024.07
2019-03-27T01:13:46.888Z,1024.09
2019-03-27T01:14:46.917Z,1024.07
2019-03-27T01:15:46.870Z,1024.03
2019-03-27T01:16:46.882Z,1024.07
2019-03-27T01:17:46.848Z,1024.01
2019-03-27T01:18:46.848Z,1024.05
2019-03-27T01:19:46.829Z,1024.04
2019-03-27T01:20:46.820Z,1024.09
2019-03-27T01:21:46.827Z,1024.04
2019-03-27T01:22:46.790Z,1024.07
2019-03-27T01:23:46.786Z,1024.06
2019-03-27T01:24:47.639Z,1024.01
2019-03-27T01:25:46.766Z,1024.05
2019-03-27T01:26:46.833Z,1024.04
2019-03-27T01:27:46.755Z,1024.09
2019-03-27T01:28:46.752Z,1024.10
2019-03-27T01:29:46.766Z,1024.06
2019-03-27T01:30:46.752Z,1024.11
2019-03-27T01:31:46.746Z,1024.08
2019-03-27T01:32:46.700Z,1024.05
2019-03-27T01:33:46.675Z,1024.10
2019-03-27T01:34:46.658Z,1024.07
2019-03-27T01:35:46.657Z,1024.12
2019-03-27T01:36:46.654Z,1024.11
2019-03-27T01:37:46.669Z,1024.05
2019-03-27T01:38:46.623Z,1024.15
2019-03-27T01:39:46.606Z,1024.09
2019-03-27T01:40:46.606Z,1024.13
2019-03-27T01:41:46.591Z,1024.12
2019-03-27T01:42:46.630Z,1024.15
2019-03-27T01:43:46.576Z,1024.20
2019-03-27T01:44:46.556Z,1024.19
2019-03-27T01:45:52.884Z,1024.15
2019-03-27T01:46:47.538Z,1024.19
2019-03-27T01:47:46.539Z,1024.19
2019-03-27T01:48:46.524Z,1024.17
2019-03-27T01:49:46.572Z,1024.20
2019-03-27T01:50:46.490Z,1024.16
2019-03-27T01:51:46.498Z,1024.15
2019-03-27T01:52:46.497Z,1024.14
2019-03-27T01:53:46.465Z,1024.21
2019-03-27T01:54:46.452Z,1024.26
2019-03-27T01:55:46.434Z,1024.21
2019-03-27T01:56:46.427Z,1024.24
2019-03-27T01:57:46.436Z,1024.18
2019-03-27T01:58:46.414Z,1024.20
2019-03-27T01:59:46.408Z,1024.30
2019-03-27T02:00:46.393Z,1024.28
2019-03-27T02:01:46.370Z,1024.18
2019-03-27T02:02:46.429Z,1024.22
2019-03-27T02:03:46.352Z,1024.20
2019-03-27T02:04:46.353Z,1024.25
2019-03-27T02:05:46.349Z,1024.28
2019-03-27T02:06:46.332Z,1024.23
2019-03-27T02:07:46.345Z,1024.33
2019-03-27T02:08:46.304Z,1024.29
2019-03-27T02:09:46.288Z,1024.25
2019-03-27T02:10:46.281Z,1024.25
2019-03-27T02:11:46.267Z,1024.29
2019-03-27T02:12:46.345Z,1024.26
2019-03-27T02:13:46.278Z,1024.22
2019-03-27T02:14:46.240Z,1024.24
2019-03-27T02:15:46.221Z,1024.21
2019-03-27T02:16:46.218Z,1024.19
2019-03-27T02:17:46.204Z,1024.17
2019-03-27T02:18:46.210Z,1024.16
2019-03-27T02:19:46.189Z,1024.18
2019-03-27T02:20:46.176Z,1024.16
2019-03-27T02:21:46.154Z,1024.18
2019-03-27T02:22:46.173Z,1024.17
2019-03-27T02:23:46.200Z,1024.18
2019-03-27T02:24:46.122Z,1024.16
2019-03-27T02:25:46.123Z,1024.18
2019-03-27T02:26:46.138Z,1024.19
2019-03-27T02:27:46.103Z,1024.17
2019-03-27T02:28:46.104Z,1024.21
2019-03-27T02:29:46.082Z,1024.20
2019-03-27T02:30:46.058Z,1024.25
2019-03-27T02:31:46.060Z,1024.25
2019-03-27T02:32:46.047Z,1024.22
2019-03-27T02:33:46.102Z,1024.24
2019-03-27T02:34:46.034Z,1024.22
2019-03-27T02:35:46.010Z,1024.20
2019-03-27T02:36:45.996Z,1024.25
2019-03-27T02:37:46.016Z,1024.23
2019-03-27T02:38:46.004Z,1024.27
2019-03-27T02:39:45.970Z,1024.26
2019-03-27T02:40:45.972Z,1024.28
2019-03-27T02:41:45.947Z,1024.20
2019-03-27T02:42:45.937Z,1024.26
2019-03-27T02:43:45.953Z,1024.21
2019-03-27T02:44:45.914Z,1024.28
2019-03-27T02:45:45.917Z,1024.28
2019-03-27T02:46:45.917Z,1024.27
2019-03-27T02:47:45.878Z,1024.23
2019-03-27T02:48:45.883Z,1024.23
2019-03-27T02:49:45.868Z,1024.24
2019-03-27T02:50:45.845Z,1024.26
2019-03-27T02:51:45.846Z,1024.23
2019-03-27T02:52:45.823Z,1024.24
2019-03-27T02:53:45.842Z,1024.22
2019-03-27T02:54:45.812Z,1024.20
2019-03-27T02:55:45.807Z,1024.19
2019-03-27T02:56:45.795Z,1024.22
2019-03-27T02:57:45.792Z,1024.19
2019-03-27T02:58:45.809Z,1024.29
2019-03-27T02:59:45.754Z,1024.21
2019-03-27T03:00:45.748Z,1024.19
2019-03-27T03:01:48.019Z,1024.20
2019-03-27T03:02:45.725Z,1024.22
2019-03-27T03:03:45.721Z,1024.25
2019-03-27T03:04:45.739Z,1024.28
2019-03-27T03:05:45.682Z,1024.29
2019-03-27T03:06:45.707Z,1024.34
2019-03-27T03:07:45.661Z,1024.34
2019-03-27T03:08:45.666Z,1024.34
2019-03-27T03:09:45.677Z,1024.28
2019-03-27T03:10:46.063Z,1024.24
2019-03-27T03:11:45.619Z,1024.22
2019-03-27T03:12:45.618Z,1024.22
2019-03-27T03:13:45.610Z,1024.21
2019-03-27T03:14:45.623Z,1024.18
2019-03-27T03:15:45.578Z,1024.27
2019-03-27T03:16:45.573Z,1024.24
2019-03-27T03:17:45.558Z,1024.21
2019-03-27T03:18:45.559Z,1024.24
2019-03-27T03:19:45.560Z,1024.31
2019-03-27T03:20:45.537Z,1024.36
2019-03-27T03:21:45.515Z,1024.32
2019-03-27T03:22:45.590Z,1024.27
2019-03-27T03:23:45.513Z,1024.29
2019-03-27T03:24:45.509Z,1024.34
2019-03-27T03:25:45.477Z,1024.30
2019-03-27T03:26:45.468Z,1024.29
2019-03-27T03:27:45.448Z,1024.32
2019-03-27T03:28:45.438Z,1024.33
2019-03-27T03:29:45.485Z,1024.32
2019-03-27T03:30:45.420Z,1024.34
2019-03-27T03:31:45.420Z,1024.37
2019-03-27T03:32:45.399Z,1024.33
2019-03-27T03:33:45.386Z,1024.37
2019-03-27T03:34:45.390Z,1024.30
2019-03-27T03:35:45.379Z,1024.38
2019-03-27T03:36:45.349Z,1024.33
2019-03-27T03:37:46.128Z,1024.40
2019-03-27T03:38:45.346Z,1024.43
2019-03-27T03:39:45.354Z,1024.42
2019-03-27T03:40:45.308Z,1024.39
2019-03-27T03:41:45.308Z,1024.44
2019-03-27T03:42:45.289Z,1024.41
2019-03-27T03:43:45.292Z,1024.43
2019-03-27T03:44:45.318Z,1024.45
2019-03-27T03:45:45.264Z,1024.41
2019-03-27T03:46:58.702Z,1024.46
2019-03-27T03:47:46.255Z,1024.45
2019-03-27T03:48:45.234Z,1024.43
2019-03-27T03:49:45.248Z,1024.48
2019-03-27T03:50:45.197Z,1024.48
2019-03-27T03:51:45.197Z,1024.51
2019-03-27T03:52:46.022Z,1024.48
2019-03-27T03:53:45.170Z,1024.50
2019-03-27T03:54:45.196Z,1024.50
2019-03-27T03:55:45.168Z,1024.49
2019-03-27T03:56:45.161Z,1024.57
2019-03-27T03:57:45.127Z,1024.53
2019-03-27T03:58:45.124Z,1024.50
2019-03-27T03:59:45.132Z,1024.48
2019-03-27T04:00:45.108Z,1024.47
2019-03-27T04:01:45.087Z,1024.52
2019-03-27T04:02:45.076Z,1024.50
2019-03-27T04:03:45.064Z,1024.47
2019-03-27T04:04:45.077Z,1024.50
2019-03-27T04:05:45.048Z,1024.49
2019-03-27T04:06:45.055Z,1024.52
2019-03-27T04:07:45.018Z,1024.54
2019-03-27T04:08:45.006Z,1024.59
2019-03-27T04:09:45.021Z,1024.55
2019-03-27T04:10:45.148Z,1024.60
2019-03-27T04:11:44.985Z,1024.56
2019-03-27T04:12:44.990Z,1024.55
2019-03-27T04:13:44.961Z,1024.60
2019-03-27T04:14:44.941Z,1024.62
2019-03-27T04:15:44.959Z,1024.60
2019-03-27T04:16:44.965Z,1024.62
2019-03-27T04:17:44.918Z,1024.60
2019-03-27T04:18:44.923Z,1024.65
2019-03-27T04:19:44.890Z,1024.62
2019-03-27T04:20:44.929Z,1024.62
2019-03-27T04:21:44.899Z,1024.59
2019-03-27T04:22:44.862Z,1024.63
2019-03-27T04:23:44.864Z,1024.59
2019-03-27T04:24:44.872Z,1024.62
2019-03-27T04:26:08.372Z,1024.63
2019-03-27T04:26:45.838Z,1024.63
2019-03-27T04:27:44.834Z,1024.66
2019-03-27T04:28:44.825Z,1024.61
2019-03-27T04:29:44.923Z,1024.61
2019-03-27T04:30:44.808Z,1024.64
2019-03-27T04:31:44.823Z,1024.65
2019-03-27T04:32:44.755Z,1024.70
2019-03-27T04:33:44.837Z,1024.73
2019-03-27T04:34:47.195Z,1024.70
2019-03-27T04:35:44.799Z,1024.69
2019-03-27T04:36:44.711Z,1024.73
2019-03-27T04:37:44.717Z,1024.78
2019-03-27T04:38:44.697Z,1024.73
2019-03-27T04:39:44.697Z,1024.76
2019-03-27T04:40:44.731Z,1024.75
2019-03-27T04:41:44.686Z,1024.74
2019-03-27T04:42:44.679Z,1024.77
2019-03-27T04:43:44.656Z,1024.80
2019-03-27T04:44:44.649Z,1024.80
2019-03-27T04:45:44.655Z,1024.81
2019-03-27T04:46:44.614Z,1024.85
2019-03-27T04:47:44.623Z,1024.75
2019-03-27T04:48:44.597Z,1024.81
2019-03-27T04:49:44.573Z,1024.81
2019-03-27T04:50:44.577Z,1024.76
2019-03-27T04:51:44.547Z,1024.81
2019-03-27T04:52:44.615Z,1024.79
2019-03-27T04:53:44.531Z,1024.77
2019-03-27T04:54:44.511Z,1024.78
2019-03-27T04:55:44.521Z,1024.80
2019-03-27T04:56:44.491Z,1024.81
2019-03-27T04:57:44.485Z,1024.85
2019-03-27T04:58:44.501Z,1024.86
2019-03-27T04:59:44.479Z,1024.88
2019-03-27T05:00:44.465Z,1024.87
2019-03-27T05:01:44.441Z,1024.88
2019-03-27T05:02:44.425Z,1024.94
2019-03-27T05:03:44.441Z,1024.91
2019-03-27T05:04:44.435Z,1024.90
2019-03-27T05:05:44.423Z,1024.91
2019-03-27T05:06:44.394Z,1024.96
2019-03-27T05:07:44.378Z,1024.94
2019-03-27T05:08:44.365Z,1024.90
2019-03-27T05:09:44.367Z,1024.95
2019-03-27T05:10:44.375Z,1024.87
2019-03-27T05:11:44.375Z,1024.92
2019-03-27T05:12:44.321Z,1024.97
2019-03-27T05:13:44.328Z,1024.94
2019-03-27T05:14:44.315Z,1024.99
2019-03-27T05:15:44.302Z,1024.98
2019-03-27T05:16:44.314Z,1024.97
2019-03-27T05:17:46.202Z,1025.00
2019-03-27T05:18:44.256Z,1024.99
2019-03-27T05:19:44.245Z,1025.02
2019-03-27T05:20:44.241Z,1025.04
2019-03-27T05:21:44.246Z,1025.05
2019-03-27T05:22:44.222Z,1025.07
2019-03-27T05:23:44.207Z,1025.13
2019-03-27T05:24:44.189Z,1025.09
2019-03-27T05:25:44.199Z,1025.13
2019-03-27T05:26:44.197Z,1025.07
2019-03-27T05:27:44.184Z,1025.08
2019-03-27T05:28:44.165Z,1025.04
2019-03-27T05:29:44.146Z,1025.08
2019-03-27T05:30:44.149Z,1025.13
2019-03-27T05:31:44.159Z,1025.14
2019-03-27T05:32:44.131Z,1025.14
2019-03-27T05:33:44.111Z,1025.16
2019-03-27T05:34:44.089Z,1025.16
2019-03-27T05:35:44.157Z,1025.17
2019-03-27T05:36:52.730Z,1025.21
2019-03-27T05:37:44.058Z,1025.17
2019-03-27T05:38:44.053Z,1025.19
2019-03-27T05:39:44.036Z,1025.16
2019-03-27T05:40:44.020Z,1025.24
2019-03-27T05:41:44.054Z,1025.16
2019-03-27T05:42:43.995Z,1025.22
2019-03-27T05:43:44.851Z,1025.20
2019-03-27T05:44:43.995Z,1025.21
2019-03-27T05:45:43.957Z,1025.23
2019-03-27T05:46:43.989Z,1025.25
2019-03-27T05:47:43.948Z,1025.20
2019-03-27T05:48:43.939Z,1025.31
2019-03-27T05:49:43.931Z,1025.28
2019-03-27T05:50:43.962Z,1025.28
2019-03-27T05:51:43.955Z,1025.36
2019-03-27T05:52:43.890Z,1025.24
2019-03-27T05:53:43.893Z,1025.23
2019-03-27T05:54:43.867Z,1025.28
2019-03-27T05:55:43.863Z,1025.28
2019-03-27T05:56:43.903Z,1025.26
2019-03-27T05:57:43.873Z,1025.30
2019-03-27T05:58:43.825Z,1025.30
2019-03-27T05:59:43.814Z,1025.32
2019-03-27T06:00:43.824Z,1025.31
2019-03-27T06:01:43.790Z,1025.36
2019-03-27T06:02:43.809Z,1025.36
2019-03-27T06:03:43.803Z,1025.40
2019-03-27T06:04:43.759Z,1025.40
2019-03-27T06:05:43.757Z,1025.48
2019-03-27T06:06:43.760Z,1025.46
2019-03-27T06:07:43.756Z,1025.42
2019-03-27T06:08:43.729Z,1025.46
2019-03-27T06:09:43.718Z,1025.50
2019-03-27T06:10:43.698Z,1025.54
2019-03-27T06:11:43.679Z,1025.52
2019-03-27T06:12:43.690Z,1025.46
2019-03-27T06:13:43.686Z,1025.46
2019-03-27T06:14:43.661Z,1025.49
2019-03-27T06:15:45.128Z,1025.48
2019-03-27T06:16:43.650Z,1025.57
2019-03-27T06:17:43.653Z,1025.58
2019-03-27T06:18:43.608Z,1025.58
2019-03-27T06:19:43.605Z,1025.56
2019-03-27T06:20:43.603Z,1025.58
2019-03-27T06:21:43.574Z,1025.59
2019-03-27T06:22:43.588Z,1025.55
2019-03-27T06:23:43.575Z,1025.62
2019-03-27T06:24:43.562Z,1025.66
2019-03-27T06:25:43.542Z,1025.62
2019-03-27T06:26:43.521Z,1025.61
2019-03-27T06:27:43.534Z,1025.63
2019-03-27T06:28:43.505Z,1025.62
2019-03-27T06:29:43.503Z,1025.67
2019-03-27T06:30:43.492Z,1025.57
2019-03-27T06:31:43.488Z,1025.59
2019-03-27T06:32:43.487Z,1025.60
2019-03-27T06:33:46.264Z,1025.62
2019-03-27T06:34:43.435Z,1025.67
2019-03-27T06:35:43.433Z,1025.64
2019-03-27T06:36:43.427Z,1025.63
2019-03-27T06:37:43.457Z,1025.63
2019-03-27T06:38:43.390Z,1025.70
2019-03-27T06:39:43.377Z,1025.73
2019-03-27T06:40:43.374Z,1025.71
2019-03-27T06:41:43.366Z,1025.73
2019-03-27T06:42:43.382Z,1025.66
2019-03-27T06:43:43.358Z,1025.68
2019-03-27T06:44:43.330Z,1025.68
2019-03-27T06:45:43.322Z,1025.67
2019-03-27T06:46:43.307Z,1025.68
2019-03-27T06:47:43.292Z,1025.64
2019-03-27T06:48:43.325Z,1025.69
2019-03-27T06:49:43.366Z,1025.69
2019-03-27T06:50:43.275Z,1025.69
2019-03-27T06:51:43.285Z,1025.64
2019-03-27T06:52:43.252Z,1025.72
2019-03-27T06:53:43.264Z,1025.75
2019-03-27T06:54:43.262Z,1025.73
2019-03-27T06:55:43.236Z,1025.65
2019-03-27T06:56:43.202Z,1025.73
2019-03-27T06:57:43.195Z,1025.76
2019-03-27T06:58:53.914Z,1025.74
2019-03-27T06:59:44.165Z,1025.70
2019-03-27T07:00:43.246Z,1025.71
2019-03-27T07:01:43.144Z,1025.67
2019-03-27T07:02:43.151Z,1025.71
2019-03-27T07:03:43.159Z,1025.78
2019-03-27T07:04:43.108Z,1025.74
2019-03-27T07:05:43.105Z,1025.71
2019-03-27T07:06:43.102Z,1025.68
2019-03-27T07:07:43.082Z,1025.67
2019-03-27T07:08:43.084Z,1025.74
2019-03-27T07:09:43.066Z,1025.73
2019-03-27T07:10:43.044Z,1025.70
2019-03-27T07:11:43.044Z,1025.75
2019-03-27T07:12:43.046Z,1025.76
2019-03-27T07:13:43.053Z,1025.80
2019-03-27T07:14:43.005Z,1025.75
2019-03-27T07:15:43.016Z,1025.77
2019-03-27T07:16:42.984Z,1025.76
2019-03-27T07:17:42.987Z,1025.75
2019-03-27T07:18:43.002Z,1025.68
2019-03-27T07:19:42.950Z,1025.76
2019-03-27T07:20:42.950Z,1025.73
2019-03-27T07:21:42.948Z,1025.79
2019-03-27T07:22:42.919Z,1025.75
2019-03-27T07:23:42.930Z,1025.79
2019-03-27T07:24:42.925Z,1025.85
2019-03-27T07:25:42.886Z,1025.82
2019-03-27T07:26:42.874Z,1025.81
2019-03-27T07:27:42.858Z,1025.82
2019-03-27T07:28:42.864Z,1025.83
2019-03-27T07:29:42.851Z,1025.80
2019-03-27T07:30:42.836Z,1025.84
2019-03-27T07:31:42.822Z,1025.89
2019-03-27T07:32:42.852Z,1025.92
2019-03-27T07:33:42.882Z,1025.88
2019-03-27T07:34:42.796Z,1025.94
2019-03-27T07:35:42.802Z,1025.89
2019-03-27T07:36:42.760Z,1025.93
2019-03-27T07:37:42.759Z,1026.02
2019-03-27T07:38:42.780Z,1026.01
2019-03-27T07:39:42.727Z,1025.95
2019-03-27T07:40:42.739Z,1025.99
2019-03-27T07:41:42.706Z,1026.02
2019-03-27T07:42:42.706Z,1026.03
2019-03-27T07:43:42.712Z,1025.99
2019-03-27T07:44:42.700Z,1026.03
2019-03-27T07:45:42.668Z,1026.04
2019-03-27T07:46:42.681Z,1026.05
2019-03-27T07:47:42.672Z,1026.06
2019-03-27T07:48:53.376Z,1026.01
2019-03-27T07:49:43.628Z,1026.00
2019-03-27T07:50:42.610Z,1026.02
2019-03-27T07:51:42.615Z,1026.10
2019-03-27T07:52:42.600Z,1026.13
2019-03-27T07:53:42.612Z,1026.06
2019-03-27T07:54:42.582Z,1026.05
2019-03-27T07:55:42.572Z,1026.06
2019-03-27T07:56:42.595Z,1026.13
2019-03-27T07:57:42.544Z,1026.11
2019-03-27T07:58:42.559Z,1026.15
2019-03-27T07:59:42.556Z,1026.09
2019-03-27T08:00:42.516Z,1026.18
2019-03-27T08:01:42.508Z,1026.15
2019-03-27T08:02:42.487Z,1026.17
2019-03-27T08:03:42.492Z,1026.19
2019-03-27T08:04:42.486Z,1026.16
2019-03-27T08:05:42.450Z,1026.17
2019-03-27T08:06:42.463Z,1026.23
2019-03-27T08:07:42.436Z,1026.21
2019-03-27T08:08:42.445Z,1026.25
2019-03-27T08:09:42.421Z,1026.27
2019-03-27T08:10:42.418Z,1026.30
2019-03-27T08:11:42.392Z,1026.26
2019-03-27T08:12:42.400Z,1026.28
2019-03-27T08:13:42.472Z,1026.26
2019-03-27T08:14:42.523Z,1026.26
2019-03-27T08:15:42.406Z,1026.27
2019-03-27T08:16:42.332Z,1026.26
2019-03-27T08:17:42.375Z,1026.26
2019-03-27T08:18:42.386Z,1026.34
2019-03-27T08:19:42.300Z,1026.24
2019-03-27T08:20:42.342Z,1026.29
2019-03-27T08:21:42.372Z,1026.24
2019-03-27T08:22:42.264Z,1026.22
2019-03-27T08:23:42.310Z,1026.25
2019-03-27T08:24:42.287Z,1026.24
2019-03-27T08:25:42.238Z,1026.22
2019-03-27T08:26:42.243Z,1026.26
2019-03-27T08:27:42.208Z,1026.20
2019-03-27T08:28:42.202Z,1026.24
2019-03-27T08:29:42.247Z,1026.25
2019-03-27T08:30:42.214Z,1026.26
2019-03-27T08:31:42.195Z,1026.27
2019-03-27T08:32:42.177Z,1026.32
2019-03-27T08:33:42.144Z,1026.28
2019-03-27T08:34:42.194Z,1026.28
2019-03-27T08:35:42.120Z,1026.33
2019-03-27T08:36:42.112Z,1026.30
2019-03-27T08:37:42.116Z,1026.28
2019-03-27T08:38:42.104Z,1026.25
2019-03-27T08:39:42.122Z,1026.23
2019-03-27T08:40:42.079Z,1026.26
2019-03-27T08:41:42.059Z,1026.28
2019-03-27T08:42:42.068Z,1026.25
2019-03-27T08:43:42.046Z,1026.30
2019-03-27T08:44:42.053Z,1026.35
2019-03-27T08:45:42.010Z,1026.35
2019-03-27T08:46:42.019Z,1026.33
2019-03-27T08:47:42.022Z,1026.33
2019-03-27T08:48:41.976Z,1026.37
2019-03-27T08:49:42.016Z,1026.35
2019-03-27T08:50:41.953Z,1026.36
2019-03-27T08:51:41.953Z,1026.38
2019-03-27T08:52:41.949Z,1026.36
2019-03-27T08:53:41.927Z,1026.36
2019-03-27T08:54:42.069Z,1026.40
2019-03-27T08:55:41.917Z,1026.39
2019-03-27T08:56:41.893Z,1026.44
2019-03-27T08:57:41.885Z,1026.43
2019-03-27T08:58:41.867Z,1026.33
2019-03-27T08:59:41.881Z,1026.33
2019-03-27T09:00:41.854Z,1026.32
2019-03-27T09:01:41.843Z,1026.33
2019-03-27T09:02:41.826Z,1026.33
2019-03-27T09:03:41.829Z,1026.34
2019-03-27T09:04:41.842Z,1026.33
2019-03-27T09:05:41.805Z,1026.34
2019-03-27T09:06:41.787Z,1026.35
2019-03-27T09:07:41.793Z,1026.33
2019-03-27T09:08:41.767Z,1026.41
2019-03-27T09:09:41.746Z,1026.41
2019-03-27T09:10:41.771Z,1026.37
2019-03-27T09:11:41.744Z,1026.37
2019-03-27T09:12:41.729Z,1026.38
2019-03-27T09:13:41.706Z,1026.38
2019-03-27T09:14:41.713Z,1026.43
2019-03-27T09:15:41.761Z,1026.34
2019-03-27T09:16:41.837Z,1026.39
2019-03-27T09:17:41.671Z,1026.43
2019-03-27T09:18:41.677Z,1026.38
2019-03-27T09:19:41.641Z,1026.47
2019-03-27T09:20:41.645Z,1026.39
2019-03-27T09:21:41.647Z,1026.45
2019-03-27T09:22:41.609Z,1026.39
2019-03-27T09:23:41.599Z,1026.43
2019-03-27T09:24:41.645Z,1026.41
2019-03-27T09:25:41.617Z,1026.37
2019-03-27T09:26:41.585Z,1026.31
2019-03-27T09:27:41.560Z,1026.37
2019-03-27T09:28:41.558Z,1026.37
2019-03-27T09:29:41.555Z,1026.39
2019-03-27T09:30:41.550Z,1026.37
2019-03-27T09:31:45.103Z,1026.36
2019-03-27T09:32:41.520Z,1026.31
2019-03-27T09:33:41.501Z,1026.34
2019-03-27T09:34:41.482Z,1026.32
2019-03-27T09:35:41.512Z,1026.36
2019-03-27T09:36:41.458Z,1026.41
2019-03-27T09:37:41.562Z,1026.40
2019-03-27T09:38:41.566Z,1026.31
2019-03-27T09:39:41.435Z,1026.42
2019-03-27T09:40:41.482Z,1026.39
2019-03-27T09:41:41.414Z,1026.38
2019-03-27T09:42:41.398Z,1026.36
2019-03-27T09:43:41.394Z,1026.37
2019-03-27T09:44:41.394Z,1026.37
2019-03-27T09:45:41.440Z,1026.45
2019-03-27T09:46:41.393Z,1026.38
2019-03-27T09:47:41.359Z,1026.42
2019-03-27T09:48:41.334Z,1026.39
2019-03-27T09:49:49.324Z,1026.42
2019-03-27T09:50:42.361Z,1026.48
2019-03-27T09:51:41.305Z,1026.45
2019-03-27T09:52:41.308Z,1026.51
2019-03-27T09:53:41.284Z,1026.51
2019-03-27T09:54:41.271Z,1026.44
2019-03-27T09:55:41.283Z,1026.45
2019-03-27T09:56:41.244Z,1026.47
2019-03-27T09:57:41.236Z,1026.43
2019-03-27T09:58:41.240Z,1026.46
2019-03-27T09:59:41.258Z,1026.43
2019-03-27T10:00:41.263Z,1026.44
2019-03-27T10:01:41.196Z,1026.52
2019-03-27T10:02:41.187Z,1026.48
2019-03-27T10:03:41.173Z,1026.46
2019-03-27T10:04:41.172Z,1026.46
2019-03-27T10:05:41.214Z,1026.48
2019-03-27T10:06:41.165Z,1026.46
2019-03-27T10:07:41.132Z,1026.45
2019-03-27T10:08:41.113Z,1026.47
2019-03-27T10:09:41.103Z,1026.49
2019-03-27T10:10:41.107Z,1026.51
2019-03-27T10:11:41.113Z,1026.49
2019-03-27T10:12:41.077Z,1026.51
2019-03-27T10:13:41.063Z,1026.50
2019-03-27T10:14:41.069Z,1026.50
2019-03-27T10:15:41.045Z,1026.51
2019-03-27T10:16:41.047Z,1026.44
2019-03-27T10:17:41.021Z,1026.44
2019-03-27T10:18:41.009Z,1026.49
2019-03-27T10:19:41.007Z,1026.51
2019-03-27T10:20:40.979Z,1026.53
2019-03-27T10:21:41.122Z,1026.55
2019-03-27T10:22:40.980Z,1026.55
2019-03-27T10:23:40.981Z,1026.61
2019-03-27T10:24:40.950Z,1026.49
2019-03-27T10:25:40.945Z,1026.49
2019-03-27T10:26:42.677Z,1026.53
2019-03-27T10:27:40.923Z,1026.54
2019-03-27T10:28:40.927Z,1026.58
2019-03-27T10:29:40.883Z,1026.53
2019-03-27T10:30:40.895Z,1026.59
2019-03-27T10:31:40.917Z,1026.57
2019-03-27T10:32:40.863Z,1026.57
2019-03-27T10:33:40.849Z,1026.58
2019-03-27T10:34:40.853Z,1026.59
2019-03-27T10:35:40.834Z,1026.53
2019-03-27T10:36:40.868Z,1026.50
2019-03-27T10:37:40.798Z,1026.57
2019-03-27T10:38:41.848Z,1026.50
2019-03-27T10:39:40.801Z,1026.48
2019-03-27T10:40:40.796Z,1026.49
2019-03-27T10:41:40.804Z,1026.56
2019-03-27T10:42:40.741Z,1026.51
2019-03-27T10:43:40.729Z,1026.54
2019-03-27T10:44:40.727Z,1026.53
2019-03-27T10:45:40.730Z,1026.56
2019-03-27T10:46:40.743Z,1026.57
2019-03-27T10:47:40.703Z,1026.63
2019-03-27T10:48:51.726Z,1026.54
2019-03-27T10:49:41.679Z,1026.64
2019-03-27T10:50:40.663Z,1026.60
2019-03-27T10:51:40.675Z,1026.59
2019-03-27T10:52:40.635Z,1026.68
2019-03-27T10:53:40.702Z,1026.57
2019-03-27T10:54:40.645Z,1026.54
2019-03-27T10:55:40.639Z,1026.55
2019-03-27T10:56:40.842Z,1026.54
2019-03-27T10:57:40.595Z,1026.60
2019-03-27T10:58:40.569Z,1026.65
2019-03-27T10:59:40.573Z,1026.61
2019-03-27T11:00:40.549Z,1026.66
2019-03-27T11:01:40.577Z,1026.69
2019-03-27T11:02:40.596Z,1026.65
2019-03-27T11:03:40.527Z,1026.69
2019-03-27T11:04:40.505Z,1026.64
2019-03-27T11:05:40.579Z,1026.66
2019-03-27T11:06:40.495Z,1026.60
2019-03-27T11:07:40.503Z,1026.62
2019-03-27T11:08:40.475Z,1026.55
2019-03-27T11:09:40.449Z,1026.55
2019-03-27T11:10:40.441Z,1026.59
2019-03-27T11:11:40.463Z,1026.60
2019-03-27T11:12:40.446Z,1026.61
2019-03-27T11:13:40.419Z,1026.60
2019-03-27T11:14:41.266Z,1026.61
2019-03-27T11:15:40.389Z,1026.57
2019-03-27T11:16:40.373Z,1026.57
2019-03-27T11:17:40.391Z,1026.55
2019-03-27T11:18:40.367Z,1026.46
2019-03-27T11:19:40.354Z,1026.54
2019-03-27T11:20:40.354Z,1026.50
2019-03-27T11:21:40.369Z,1026.50
2019-03-27T11:22:40.366Z,1026.52
2019-03-27T11:23:40.307Z,1026.58
2019-03-27T11:24:40.290Z,1026.56
2019-03-27T11:25:40.289Z,1026.57
2019-03-27T11:26:40.305Z,1026.58
2019-03-27T11:27:40.306Z,1026.52
2019-03-27T11:28:40.255Z,1026.56
2019-03-27T11:29:40.263Z,1026.49
2019-03-27T11:30:40.222Z,1026.61
2019-03-27T11:31:40.227Z,1026.56
2019-03-27T11:32:40.240Z,1026.57
2019-03-27T11:33:40.179Z,1026.54
2019-03-27T11:34:40.182Z,1026.56
2019-03-27T11:35:40.197Z,1026.59
2019-03-27T11:36:40.204Z,1026.54
2019-03-27T11:37:40.177Z,1026.48
2019-03-27T11:38:40.171Z,1026.50
2019-03-27T11:39:40.124Z,1026.53
2019-03-27T11:40:40.811Z,1026.50
2019-03-27T11:41:40.096Z,1026.52
2019-03-27T11:42:40.107Z,1026.53
2019-03-27T11:43:53.883Z,1026.49
2019-03-27T11:44:41.087Z,1026.51
2019-03-27T11:45:40.059Z,1026.45
2019-03-27T11:46:40.058Z,1026.50
2019-03-27T11:47:40.039Z,1026.47
2019-03-27T11:48:40.052Z,1026.53
2019-03-27T11:49:40.020Z,1026.49
2019-03-27T11:50:45.351Z,1026.48
2019-03-27T11:51:40.997Z,1026.47
2019-03-27T11:52:39.975Z,1026.47
2019-03-27T11:53:40.007Z,1026.48
2019-03-27T11:54:39.982Z,1026.44
2019-03-27T11:55:39.953Z,1026.43
2019-03-27T11:56:39.931Z,1026.45
2019-03-27T11:57:39.929Z,1026.42
2019-03-27T11:58:39.947Z,1026.40
2019-03-27T11:59:52.985Z,1026.43
2019-03-27T12:00:53.929Z,1026.38
2019-03-27T12:01:43.802Z,1026.41
2019-03-27T12:02:39.873Z,1026.33
2019-03-27T12:03:39.882Z,1026.36
2019-03-27T12:04:39.873Z,1026.35
2019-03-27T12:05:39.879Z,1026.34